Date,TemperatureHighF,TemperatureAvgF,TemperatureLowF,DewpointHighF,DewpointAvgF,DewpointLowF,HumidityHigh,HumidityAvg,HumidityLow,PressureMaxIn,PressureMinIn,WindSpeedMaxMPH,WindSpeedAvgMPH,GustSpeedMaxMPH,PrecipitationSumIn
2013-10-1,79.0,64.8,55.2,62.4,56.5,51.0,88,75,50,30.15,30.04,3,0,10,0.00
2013-10-2,80.4,65.8,55.8,63.6,57.4,51.3,88,75,50,30.17,30.07,5,0,6,0.00
2013-10-3,78.6,66.5,58.8,66.2,59.5,54.7,87,79,62,30.15,30.07,4,0,5,0.00
2013-10-4,82.6,67.2,58.6,66.7,59.8,54.5,89,78,52,30.16,30.08,2,0,3,0.00
2013-10-5,83.1,68.8,59.9,67.0,61.0,56.0,88,77,53,30.15,30.05,3,0,4,0.00
2013-10-6,79.2,67.4,58.8,66.8,60.5,54.7,89,79,60,30.06,29.90,2,0,7,0.00
2013-10-7,71.2,64.6,54.0,64.9,58.9,48.9,91,82,66,30.02,29.82,5,0,7,1.38
2013-10-8,68.5,56.9,49.6,53.4,48.9,45.3,86,75,55,30.23,30.02,2,0,7,0.02
2013-10-9,70.9,56.0,45.3,49.4,45.4,40.7,85,70,41,30.24,30.11,4,0,7,0.00
2013-10-10,73.9,58.2,45.7,58.7,49.3,40.8,86,73,54,30.14,30.00,6,0,7,0.00
2013-10-11,79.3,64.6,56.3,58.0,53.3,50.6,83,68,44,30.02,29.92,7,0,11,0.00
2013-10-12,70.9,62.9,55.9,60.5,55.5,49.4,83,77,66,30.11,29.98,3,0,3,0.00
2013-10-13,73.4,65.1,61.3,63.9,59.4,57.4,88,82,68,30.22,30.10,2,0,4,0.11
2013-10-14,69.4,63.5,59.5,60.7,57.8,54.7,87,82,71,30.25,30.16,4,0,6,0.06
2013-10-15,72.1,61.6,56.5,58.0,54.2,51.3,86,77,57,30.22,30.06,4,0,8,0.04
2013-10-16,70.2,60.5,52.2,59.0,53.9,47.8,87,79,64,30.09,29.96,4,0,5,0.00
2013-10-17,69.6,62.4,58.8,63.9,58.2,54.7,89,86,77,29.97,29.84,3,0,3,0.15
2013-10-18,69.3,58.7,49.3,57.1,52.5,45.3,89,80,65,30.04,29.91,2,0,114,0.04
2013-10-19,62.8,57.7,51.6,57.2,53.1,47.0,88,85,78,29.97,29.85,2,0,2,0.02
2013-10-20,64.8,52.1,43.9,47.9,43.4,38.6,84,73,51,30.09,29.94,2,0,5,0.02
2013-10-21,66.7,51.9,40.8,52.9,44.9,36.1,86,77,57,30.14,29.99,2,0,6,0.00
2013-10-22,66.2,57.5,52.2,56.4,51.0,47.3,88,79,67,30.00,29.80,0,0,5,0.00
2013-10-23,61.0,51.0,39.0,49.8,38.9,29.8,85,65,41,30.03,29.74,13,2,23,0.00
2013-10-24,56.8,44.6,33.6,37.9,33.0,27.5,80,65,47,30.14,30.01,8,0,12,0.00
2013-10-25,51.3,41.0,33.3,34.6,29.7,25.7,80,65,45,30.35,30.14,9,0,11,0.00
2013-10-26,56.8,41.3,28.2,36.7,30.0,22.6,81,66,42,30.34,30.04,4,0,7,0.00
2013-10-27,67.3,52.5,39.9,47.9,41.7,34.6,83,68,46,30.10,30.02,3,0,7,0.00
2013-10-28,63.1,54.4,48.0,55.5,48.8,42.9,86,81,75,30.24,30.09,2,0,2,0.00
2013-10-29,68.5,56.2,46.2,55.9,49.0,42.3,88,78,59,30.32,30.22,1,0,4,0.00
2013-10-30,75.9,61.8,53.4,57.5,52.8,48.7,86,73,49,30.27,30.13,4,0,7,0.00
2013-10-31,67.8,60.3,53.2,59.0,53.4,48.7,87,78,61,30.17,29.87,5,0,6,0.00